Time;durP1;ratioP1;P1;durP2;ratioP2;P2;SDS_P1;SDS_P2;PMS_P1;PMS_P2;Temp;Humidity;BMP_temperature;BMP_pressure;BME280_temperature;BME280_humidity;BME280_pressure;Samples;Min_cycle;Max_cycle;Signal;HPM_P1;HPM_P2
2023/12/30 00:01:27;;;;;;;;;;;;;;;17.40;45.22;98961.81;10324739;28;876;-74
2023/12/30 00:06:22;;;;;;;;;;;;;;;17.44;44.78;98965.97;10325163;28;1959;-74
2023/12/30 00:11:18;;;;;;;;;;;;;;;17.40;45.14;98977.63;10324938;28;979;-74
2023/12/30 00:16:14;;;;;;;;;;;;;;;17.39;45.19;98982.00;10324424;28;863;-74
2023/12/30 00:21:10;;;;;;;;;;;;;;;17.37;45.24;98985.66;10324362;28;865;-74
2023/12/30 00:26:06;;;;;;;;;;;;;;;17.39;44.79;98976.75;10324818;28;1897;-74
2023/12/30 00:31:02;;;;;;;;;;;;;;;17.42;44.77;98986.28;10328562;28;814;-74
2023/12/30 00:35:58;;;;;;;;;;;;;;;17.34;45.46;98993.72;10332280;28;1113;-74
2023/12/30 00:40:54;;;;;;;;;;;;;;;17.31;45.13;98992.97;10331335;28;944;-74
2023/12/30 00:45:50;;;;;;;;;;;;;;;17.31;45.10;99008.75;10331993;28;1987;-74
2023/12/30 00:50:45;;;;;;;;;;;;;;;17.31;45.00;99014.03;10331630;28;862;-74
2023/12/30 00:55:41;;;;;;;;;;;;;;;17.31;45.12;99024.56;10330724;28;997;-74
2023/12/30 01:00:37;;;;;;;;;;;;;;;17.28;45.17;99023.88;10330665;28;779;-74
2023/12/30 01:05:33;;;;;;;;;;;;;;;17.27;45.27;99028.31;10329767;28;1959;-74
2023/12/30 01:10:29;;;;;;;;;;;;;;;17.27;45.35;99030.09;10330273;28;897;-74
2023/12/30 01:15:25;;;;;;;;;;;;;;;17.28;45.26;99037.91;10330082;28;862;-74
2023/12/30 01:20:21;;;;;;;;;;;;;;;17.28;45.55;99048.44;10329832;28;904;-74
2023/12/30 01:25:17;;;;;;;;;;;;;;;17.27;45.34;99046.75;10330217;28;1893;-74
2023/12/30 01:30:13;;;;;;;;;;;;;;;17.28;44.99;99058.13;10328898;28;1193;-74
2023/12/30 01:35:08;;;;;;;;;;;;;;;17.27;45.39;99061.72;10329379;28;1027;-74
2023/12/30 01:40:04;;;;;;;;;;;;;;;17.30;45.19;99062.38;10327725;28;1322;-74
2023/12/30 01:45:00;;;;;;;;;;;;;;;17.30;45.21;99069.44;10328918;28;1979;-74
2023/12/30 01:49:56;;;;;;;;;;;;;;;17.30;45.19;99069.44;10329475;28;889;-74
2023/12/30 01:54:52;;;;;;;;;;;;;;;17.29;45.41;99081.78;10328029;28;1018;-74
2023/12/30 01:59:48;;;;;;;;;;;;;;;17.33;45.19;99086.88;10327698;28;865;-74
2023/12/30 02:04:44;;;;;;;;;;;;;;;17.31;45.46;99111.50;10327413;28;1960;-74
2023/12/30 02:09:39;;;;;;;;;;;;;;;17.30;45.22;99120.34;10328467;28;823;-74
2023/12/30 02:14:35;;;;;;;;;;;;;;;17.31;45.03;99124.66;10327070;28;956;-74
2023/12/30 02:19:33;;;;;;;;;;;;;;;17.28;45.14;99119.56;10327007;28;829;-74
2023/12/30 02:24:29;;;;;;;;;;;;;;;17.28;45.30;99123.97;10327763;28;1956;-74
2023/12/30 02:29:25;;;;;;;;;;;;;;;17.28;45.44;99124.81;10327073;28;934;-74
2023/12/30 02:34:21;;;;;;;;;;;;;;;17.27;45.14;99123.13;10327488;28;882;-74
2023/12/30 02:39:17;;;;;;;;;;;;;;;17.23;45.26;99134.75;10327391;28;1353;-74
2023/12/30 02:44:18;;;;;;;;;;;;;;;17.25;45.44;99127.63;10326684;28;928;-74
2023/12/30 02:49:14;;;;;;;;;;;;;;;17.25;45.32;99132.03;10326385;28;1910;-74
2023/12/30 02:54:10;;;;;;;;;;;;;;;17.26;45.44;99139.84;10326503;28;971;-74
2023/12/30 02:59:06;;;;;;;;;;;;;;;17.23;45.43;99131.25;10326711;28;873;-74
2023/12/30 03:04:01;;;;;;;;;;;;;;;17.20;45.39;99124.38;10326607;28;893;-74
2023/12/30 03:08:57;;;;;;;;;;;;;;;17.19;45.21;99130.56;10325915;28;1894;-74
2023/12/30 03:13:53;;;;;;;;;;;;;;;17.20;45.33;99134.91;10325702;28;947;-74
2023/12/30 03:18:49;;;;;;;;;;;;;;;17.21;45.47;99146.28;10326593;28;818;-74
2023/12/30 03:23:45;;;;;;;;;;;;;;;17.21;45.32;99157.69;10324925;28;875;-74
2023/12/30 03:28:42;;;;;;;;;;;;;;;17.18;45.41;99142.03;10325341;28;1890;-74
2023/12/30 03:33:38;;;;;;;;;;;;;;;17.18;45.48;99149.06;10325327;28;923;-74
2023/12/30 03:38:34;;;;;;;;;;;;;;;17.18;45.33;99155.19;10325173;28;1176;-74
2023/12/30 03:43:31;;;;;;;;;;;;;;;17.19;45.33;99154.28;10325083;28;897;-74
2023/12/30 03:48:26;;;;;;;;;;;;;;;17.18;45.34;99149.91;10325054;28;1905;-74
2023/12/30 03:53:22;;;;;;;;;;;;;;;17.15;45.21;99157.13;10324924;28;774;-74
2023/12/30 03:58:18;;;;;;;;;;;;;;;17.16;45.29;99162.34;10325400;28;893;-74
2023/12/30 04:03:14;;;;;;;;;;;;;;;17.17;45.22;99163.19;10324736;28;830;-74
2023/12/30 04:08:10;;;;;;;;;;;;;;;17.18;45.35;99172.78;10331511;28;1945;-74
2023/12/30 04:13:06;;;;;;;;;;;;;;;17.14;45.29;99161.56;10333433;28;825;-74
2023/12/30 04:18:02;;;;;;;;;;;;;;;17.14;45.37;99172.09;10332880;28;838;-74
2023/12/30 04:22:58;;;;;;;;;;;;;;;17.14;45.40;99173.88;10332698;28;1554;-74
2023/12/30 04:27:54;;;;;;;;;;;;;;;17.17;45.28;99174.56;10332355;28;1889;-74
2023/12/30 04:32:49;;;;;;;;;;;;;;;17.17;45.02;99173.72;10331876;28;861;-74
2023/12/30 04:37:45;;;;;;;;;;;;;;;17.19;45.11;99174.50;10331651;28;1496;-74
2023/12/30 04:42:41;;;;;;;;;;;;;;;17.21;45.02;99180.50;10331313;28;785;-74
2023/12/30 04:47:37;;;;;;;;;;;;;;;17.21;44.99;99175.25;10330996;28;1918;-74
2023/12/30 04:52:33;;;;;;;;;;;;;;;17.25;45.01;99175.03;10330991;28;766;-74
2023/12/30 04:57:29;;;;;;;;;;;;;;;17.29;45.04;99178.34;10331429;28;841;-74
2023/12/30 05:02:25;;;;;;;;;;;;;;;17.32;45.01;99180.84;10331243;28;870;-74
2023/12/30 05:07:21;;;;;;;;;;;;;;;17.35;44.77;99179.84;10330292;28;1889;-73
2023/12/30 05:12:16;;;;;;;;;;;;;;;17.41;44.12;99183.00;10330277;28;873;-75
2023/12/30 05:17:13;;;;;;;;;;;;;;;17.35;44.83;99195.66;10329779;28;975;-74
2023/12/30 05:22:08;;;;;;;;;;;;;;;17.40;44.81;99194.50;10330032;28;830;-75
2023/12/30 05:27:04;;;;;;;;;;;;;;;17.45;44.78;99202.16;10329580;28;1898;-77
2023/12/30 05:32:00;;;;;;;;;;;;;;;17.51;44.61;99207.13;10329725;28;868;-75
2023/12/30 05:36:56;;;;;;;;;;;;;;;17.56;44.57;99218.28;10328817;28;1221;-75
2023/12/30 05:41:52;;;;;;;;;;;;;;;17.57;44.57;99221.75;10329313;28;833;-74
2023/12/30 05:46:48;;;;;;;;;;;;;;;17.59;44.62;99230.44;10328773;28;1965;-74
2023/12/30 05:51:44;;;;;;;;;;;;;;;17.56;44.76;99226.19;10328713;28;856;-74
2023/12/30 05:56:40;;;;;;;;;;;;;;;17.53;44.65;99226.34;10329046;28;874;-74
2023/12/30 06:01:36;;;;;;;;;;;;;;;17.60;44.74;99230.34;10327721;28;810;-74
2023/12/30 06:06:32;;;;;;;;;;;;;;;17.64;44.91;99237.19;10328022;28;1898;-75
2023/12/30 06:11:28;;;;;;;;;;;;;;;17.65;45.06;99232.75;10325440;28;1030;-74
2023/12/30 06:16:24;;;;;;;;;;;;;;;17.62;44.96;99248.72;10326917;28;1587;-74
2023/12/30 06:21:20;;;;;;;;;;;;;;;17.65;45.27;99248.56;10325002;28;1069;-74
2023/12/30 06:26:16;;;;;;;;;;;;;;;17.65;44.95;99269.66;10327041;28;1898;-74
2023/12/30 06:31:12;;;;;;;;;;;;;;;17.61;45.11;99268.97;10326158;28;778;-75
2023/12/30 06:36:08;;;;;;;;;;;;;;;17.63;45.09;99263.59;10326718;28;1299;-75
2023/12/30 06:41:04;;;;;;;;;;;;;;;17.65;45.12;99283.69;10325535;28;1168;-75
2023/12/30 06:46:00;;;;;;;;;;;;;;;17.63;45.17;99276.78;10326144;28;1910;-74
2023/12/30 06:50:56;;;;;;;;;;;;;;;17.61;45.24;99279.50;10326387;28;819;-76
2023/12/30 06:55:52;;;;;;;;;;;;;;;17.67;45.10;99292.38;10326682;28;834;-75
2023/12/30 07:00:48;;;;;;;;;;;;;;;17.66;45.19;99301.22;10325454;28;939;-74
2023/12/30 07:05:44;;;;;;;;;;;;;;;17.64;45.34;99308.34;10326290;28;1937;-75
2023/12/30 07:10:40;;;;;;;;;;;;;;;17.62;45.13;99315.47;10325800;28;888;-75
2023/12/30 07:15:36;;;;;;;;;;;;;;;17.53;45.32;99322.06;10325607;28;1128;-74
2023/12/30 07:20:32;;;;;;;;;;;;;;;17.51;45.10;99308.09;10325589;28;751;-74
2023/12/30 07:25:28;;;;;;;;;;;;;;;17.47;45.28;99313.56;10325242;28;1898;-74
2023/12/30 07:30:24;;;;;;;;;;;;;;;17.44;45.22;99321.63;10324743;28;814;-74
2023/12/30 07:35:20;;;;;;;;;;;;;;;17.44;45.48;99325.13;10325272;28;1172;-74
2023/12/30 07:40:16;;;;;;;;;;;;;;;17.45;45.46;99331.28;10329489;28;897;-76
2023/12/30 07:45:12;;;;;;;;;;;;;;;17.47;45.58;99326.75;10333062;28;1917;-75
2023/12/30 07:50:08;;;;;;;;;;;;;;;17.51;45.53;99334.44;10333455;28;837;-75
2023/12/30 07:55:04;;;;;;;;;;;;;;;17.50;45.57;99331.88;10332884;28;757;-78
2023/12/30 08:00:00;;;;;;;;;;;;;;;17.54;45.48;99346.63;10332512;28;967;-75
2023/12/30 08:04:57;;;;;;;;;;;;;;;17.56;45.30;99354.47;10332361;28;1960;-75
2023/12/30 08:09:53;;;;;;;;;;;;;;;17.61;45.23;99355.94;10332753;28;846;-76
2023/12/30 08:14:49;;;;;;;;;;;;;;;17.63;45.21;99364.63;10332567;28;825;-74
2023/12/30 08:19:45;;;;;;;;;;;;;;;17.63;45.53;99369.03;10331595;28;1077;-74
2023/12/30 08:24:41;;;;;;;;;;;;;;;17.68;45.30;99362.63;10331335;28;1905;-76
2023/12/30 08:29:37;;;;;;;;;;;;;;;17.69;45.18;99376.66;10331860;28;814;-75
2023/12/30 08:34:33;;;;;;;;;;;;;;;17.71;45.09;99369.50;10331579;28;814;-75
2023/12/30 08:39:29;;;;;;;;;;;;;;;17.72;45.00;99379.13;10331440;28;1523;-80
2023/12/30 08:44:26;;;;;;;;;;;;;;;17.75;44.81;99378.97;10331902;28;779;-74
2023/12/30 08:49:22;;;;;;;;;;;;;;;17.70;45.05;99375.72;10330672;28;1985;-74
2023/12/30 08:54:18;;;;;;;;;;;;;;;17.74;44.94;99375.50;10331373;28;810;-75
2023/12/30 08:59:14;;;;;;;;;;;;;;;17.68;44.90;99377.56;10331146;28;845;-71
2023/12/30 09:04:10;;;;;;;;;;;;;;;17.67;44.47;99404.84;10330557;28;849;-75
2023/12/30 09:09:07;;;;;;;;;;;;;;;17.71;44.76;99396.75;10330261;28;1893;-75
2023/12/30 09:14:03;;;;;;;;;;;;;;;17.72;44.68;99403.69;10330431;28;767;-75
2023/12/30 09:18:59;;;;;;;;;;;;;;;17.68;44.73;99409.19;10329974;28;858;-75
2023/12/30 09:23:55;;;;;;;;;;;;;;;17.75;44.68;99421.16;10330452;28;758;-75
2023/12/30 09:28:52;;;;;;;;;;;;;;;17.75;44.33;99426.44;10329776;28;1905;-75
2023/12/30 09:33:48;;;;;;;;;;;;;;;17.77;44.31;99429.84;10329582;28;811;-75
2023/12/30 09:38:44;;;;;;;;;;;;;;;17.72;44.62;99427.44;10329666;28;1305;-75
2023/12/30 09:43:41;;;;;;;;;;;;;;;17.73;44.44;99444.94;10329086;28;905;-75
2023/12/30 09:48:37;;;;;;;;;;;;;;;17.73;44.37;99442.31;10328798;28;1922;-75
2023/12/30 09:53:33;;;;;;;;;;;;;;;17.75;44.66;99448.38;10328737;28;941;-75
2023/12/30 09:58:29;;;;;;;;;;;;;;;17.76;44.27;99438.66;10329068;28;889;-75
2023/12/30 10:03:25;;;;;;;;;;;;;;;17.79;44.10;99449.13;10327338;28;861;-75
2023/12/30 10:08:21;;;;;;;;;;;;;;;17.78;44.24;99451.78;10328610;28;1914;-78
2023/12/30 10:13:18;;;;;;;;;;;;;;;17.80;44.10;99440.28;10327688;28;882;-77
2023/12/30 10:18:15;;;;;;;;;;;;;;;17.75;44.50;99442.25;10328209;28;780;-79
2023/12/30 10:23:11;;;;;;;;;;;;;;;17.68;45.06;99444.34;10327404;28;845;-76
2023/12/30 10:28:07;;;;;;;;;;;;;;;17.73;44.54;99434.41;10327817;28;1889;-75
2023/12/30 10:33:03;;;;;;;;;;;;;;;17.75;44.31;99436.97;10327102;28;763;-75
2023/12/30 10:37:58;;;;;;;;;;;;;;;17.72;44.43;99426.59;10326814;28;1085;-75
2023/12/30 10:42:54;;;;;;;;;;;;;;;17.81;44.34;99425.31;10326712;28;779;-76
2023/12/30 10:47:50;;;;;;;;;;;;;;;17.77;44.53;99423.72;10327087;28;1910;-76
2023/12/30 10:52:46;;;;;;;;;;;;;;;17.81;44.30;99404.22;10326975;28;856;-76
2023/12/30 10:57:42;;;;;;;;;;;;;;;17.83;44.25;99405.84;10326303;28;822;-76
2023/12/30 11:02:38;;;;;;;;;;;;;;;17.85;44.26;99408.44;10327561;28;849;-76
2023/12/30 11:07:34;;;;;;;;;;;;;;;17.87;44.38;99414.47;10325916;28;1890;-76
2023/12/30 11:12:30;;;;;;;;;;;;;;;17.85;44.25;99425.09;10325615;28;774;-76
2023/12/30 11:17:25;;;;;;;;;;;;;;;17.87;44.31;99425.03;10326330;28;842;-76
2023/12/30 11:22:22;;;;;;;;;;;;;;;17.90;44.36;99425.72;10325017;28;929;-76
2023/12/30 11:27:17;;;;;;;;;;;;;;;17.90;44.66;99412.53;10325474;28;1902;-77
2023/12/30 11:32:13;;;;;;;;;;;;;;;17.96;44.44;99414.00;10325420;28;837;-77
2023/12/30 11:37:09;;;;;;;;;;;;;;;17.86;44.98;99420.66;10325409;28;1306;-73
2023/12/30 11:42:06;;;;;;;;;;;;;;;17.87;45.12;99415.34;10325230;28;829;-76
2023/12/30 11:47:02;;;;;;;;;;;;;;;17.84;44.99;99404.94;10325009;28;1971;-77
2023/12/30 11:51:58;;;;;;;;;;;;;;;17.86;44.83;99408.31;10325115;28;814;-75
2023/12/30 11:56:54;;;;;;;;;;;;;;;17.92;44.82;99401.91;10324951;28;829;-76
2023/12/30 12:01:50;;;;;;;;;;;;;;;17.90;44.58;99396.72;10324784;28;794;-77
2023/12/30 12:06:46;;;;;;;;;;;;;;;17.91;44.74;99405.47;10325062;28;1898;-76
2023/12/30 12:11:42;;;;;;;;;;;;;;;17.88;44.91;99390.66;10324402;28;861;-76
2023/12/30 12:16:38;;;;;;;;;;;;;;;17.94;44.66;99381.59;10323773;28;889;-76
2023/12/30 12:21:36;;;;;;;;;;;;;;;17.90;45.04;99377.41;10325503;28;896;-76
2023/12/30 12:26:32;;;;;;;;;;;;;;;17.96;44.45;99377.09;10327723;28;1898;-76
2023/12/30 12:31:27;;;;;;;;;;;;;;;17.75;44.75;99371.06;10331611;28;786;-76
2023/12/30 12:36:23;;;;;;;;;;;;;;;17.68;44.96;99361.75;10332257;28;1350;-77
2023/12/30 12:41:19;;;;;;;;;;;;;;;17.64;44.79;99366.31;10331211;28;825;-78
2023/12/30 12:46:15;;;;;;;;;;;;;;;17.62;44.66;99352.34;10331561;28;1918;-75
2023/12/30 12:51:11;;;;;;;;;;;;;;;17.58;44.61;99364.00;10330931;28;790;-76
2023/12/30 12:56:08;;;;;;;;;;;;;;;17.70;43.86;99365.16;10331293;28;929;-75
2023/12/30 13:01:04;;;;;;;;;;;;;;;17.68;43.95;99357.34;10328662;28;1540;-79
2023/12/30 13:06:10;;;;;;;;;;;;;;;17.79;43.86;99348.94;10330871;28;1960;-76
2023/12/30 13:11:06;;;;;;;;;;;;;;;17.87;43.74;99338.03;10330369;28;786;-75
2023/12/30 13:16:02;;;;;;;;;;;;;;;17.93;43.64;99330.63;10330962;28;876;-75
2023/12/30 13:20:58;;;;;;;;;;;;;;;17.96;43.60;99341.03;10329245;28;846;-75
2023/12/30 13:25:54;;;;;;;;;;;;;;;18.08;43.18;99344.84;10329451;28;1902;-75
2023/12/30 13:30:50;;;;;;;;;;;;;;;17.96;43.79;99334.91;10329621;28;988;-75
2023/12/30 13:35:46;;;;;;;;;;;;;;;18.00;43.51;99344.38;10328874;28;1368;-75
2023/12/30 13:40:42;;;;;;;;;;;;;;;17.98;43.97;99332.22;10329121;28;763;-75
2023/12/30 13:45:38;;;;;;;;;;;;;;;18.02;43.62;99345.13;10328783;28;1914;-75
2023/12/30 13:50:43;;;;;;;;;;;;;;;18.10;43.50;99337.72;10328743;28;905;-75
2023/12/30 13:55:39;;;;;;;;;;;;;;;18.15;43.52;99324.25;10329099;28;798;-75
2023/12/30 14:00:36;;;;;;;;;;;;;;;18.18;43.42;99314.44;10327641;28;1069;-75
2023/12/30 14:05:45;;;;;;;;;;;;;;;18.15;43.37;99304.00;10328492;28;1902;-75
2023/12/30 14:10:47;;;;;;;;;;;;;;;18.16;43.66;99311.00;10327734;28;961;-73
2023/12/30 14:15:43;;;;;;;;;;;;;;;18.15;43.52;99297.88;10327618;28;841;-75
2023/12/30 14:20:39;;;;;;;;;;;;;;;18.10;43.77;99300.78;10327352;28;983;-75
2023/12/30 14:25:35;;;;;;;;;;;;;;;17.89;44.22;99307.13;10327029;28;1893;-76
2023/12/30 14:30:32;;;;;;;;;;;;;;;17.59;44.75;99314.78;10327738;28;873;-74
2023/12/30 14:35:28;;;;;;;;;;;;;;;17.39;44.72;99300.78;10326688;28;1126;-76
2023/12/30 14:40:24;;;;;;;;;;;;;;;17.33;44.22;99303.72;10327342;28;790;-74
2023/12/30 14:45:20;;;;;;;;;;;;;;;17.35;43.66;99307.13;10326893;28;1910;-76
2023/12/30 14:50:16;;;;;;;;;;;;;;;17.60;42.63;99311.19;10325872;28;913;-78
2023/12/30 14:55:12;;;;;;;;;;;;;;;17.71;42.32;99304.47;10326614;28;902;-75
2023/12/30 15:00:12;;;;;;;;;;;;;;;17.76;42.50;99309.50;10326240;28;890;-75
2023/12/30 15:05:14;;;;;;;;;;;;;;;17.78;42.54;99297.09;10325739;28;1967;-75
2023/12/30 15:10:13;;;;;;;;;;;;;;;17.85;42.54;99298.53;10326557;28;834;-75
2023/12/30 15:15:09;;;;;;;;;;;;;;;17.80;42.83;99297.06;10325854;28;796;-75
2023/12/30 15:20:08;;;;;;;;;;;;;;;17.81;42.80;99298.75;10325692;28;880;-74
2023/12/30 15:25:03;;;;;;;;;;;;;;;17.86;42.67;99294.97;10326186;28;1951;-74
2023/12/30 15:29:59;;;;;;;;;;;;;;;17.82;42.89;99297.84;10325494;28;944;-74
2023/12/30 15:34:55;;;;;;;;;;;;;;;17.83;42.95;99283.72;10326233;28;989;-75
2023/12/30 15:39:51;;;;;;;;;;;;;;;17.87;43.08;99280.03;10326541;28;1159;-75
2023/12/30 15:44:47;;;;;;;;;;;;;;;17.86;42.84;99275.66;10325233;28;798;-75
2023/12/30 15:49:43;;;;;;;;;;;;;;;17.86;43.22;99283.56;10325572;28;1906;-74
2023/12/30 15:54:39;;;;;;;;;;;;;;;17.86;43.18;99271.22;10325768;28;871;-75
2023/12/30 15:59:34;;;;;;;;;;;;;;;17.87;43.19;99275.59;10325683;28;912;-75
2023/12/30 16:04:30;;;;;;;;;;;;;;;17.87;43.19;99274.75;10333081;28;826;-75
2023/12/30 16:09:26;;;;;;;;;;;;;;;17.90;43.26;99272.78;10332804;28;1890;-74
2023/12/30 16:14:22;;;;;;;;;;;;;;;17.95;43.25;99273.41;10332610;28;826;-76
2023/12/30 16:19:19;;;;;;;;;;;;;;;17.85;43.58;99268.69;10333221;28;855;-76
2023/12/30 16:24:15;;;;;;;;;;;;;;;17.83;43.54;99260.00;10331567;28;1122;-75
2023/12/30 16:29:11;;;;;;;;;;;;;;;17.82;43.60;99264.44;10331926;28;1890;-74
2023/12/30 16:34:06;;;;;;;;;;;;;;;17.83;43.60;99258.22;10332489;28;867;-74
2023/12/30 16:39:02;;;;;;;;;;;;;;;17.81;43.60;99262.69;10330924;28;1267;-74
2023/12/30 16:43:58;;;;;;;;;;;;;;;17.77;43.70;99260.28;10331007;28;929;-75
2023/12/30 16:48:54;;;;;;;;;;;;;;;17.69;43.77;99253.63;10331343;28;1957;-74
2023/12/30 16:53:50;;;;;;;;;;;;;;;17.69;43.79;99253.63;10331089;28;878;-75
2023/12/30 16:58:46;;;;;;;;;;;;;;;17.69;43.92;99258.03;10331533;28;849;-74
2023/12/30 17:03:43;;;;;;;;;;;;;;;17.69;43.81;99252.78;10331328;28;849;-74
2023/12/30 17:08:40;;;;;;;;;;;;;;;17.69;43.86;99237.81;10331268;28;1898;-72
2023/12/30 17:13:36;;;;;;;;;;;;;;;17.68;44.09;99235.22;10329885;28;799;-78
2023/12/30 17:18:31;;;;;;;;;;;;;;;17.69;44.05;99234.31;10330242;28;936;-74
2023/12/30 17:23:27;;;;;;;;;;;;;;;17.75;43.60;99231.38;10330022;28;861;-74
2023/12/30 17:28:23;;;;;;;;;;;;;;;17.80;43.72;99215.34;10330390;28;1894;-74
2023/12/30 17:33:19;;;;;;;;;;;;;;;17.85;43.70;99223.88;10330294;28;813;-74
2023/12/30 17:38:15;;;;;;;;;;;;;;;17.84;43.66;99225.66;10330417;28;1354;-74
2023/12/30 17:43:11;;;;;;;;;;;;;;;17.90;43.71;99232.41;10329316;28;821;-74
2023/12/30 17:48:07;;;;;;;;;;;;;;;17.92;43.72;99226.13;10329011;28;1910;-74
2023/12/30 17:53:03;;;;;;;;;;;;;;;17.87;43.76;99228.13;10328833;28;1594;-74
2023/12/30 17:57:59;;;;;;;;;;;;;;;17.92;43.81;99223.47;10328624;28;881;-74
2023/12/30 18:02:55;;;;;;;;;;;;;;;17.94;43.56;99216.31;10328671;28;871;-74
2023/12/30 18:07:51;;;;;;;;;;;;;;;17.93;43.68;99221.69;10328747;28;1901;-74
2023/12/30 18:12:47;;;;;;;;;;;;;;;17.96;43.58;99208.34;10328776;28;815;-74
2023/12/30 18:17:46;;;;;;;;;;;;;;;17.99;43.44;99216.09;10328519;28;917;-74
2023/12/30 18:22:43;;;;;;;;;;;;;;;17.94;43.67;99208.41;10327566;28;905;-74
2023/12/30 18:27:39;;;;;;;;;;;;;;;17.99;43.64;99213.44;10327892;28;1894;-74
2023/12/30 18:32:35;;;;;;;;;;;;;;;18.01;43.46;99208.09;10327203;28;946;-74
2023/12/30 18:37:30;;;;;;;;;;;;;;;17.98;43.67;99195.94;10326751;28;1099;-74
2023/12/30 18:42:27;;;;;;;;;;;;;;;17.99;43.67;99196.78;10327410;28;870;-74
2023/12/30 18:47:23;;;;;;;;;;;;;;;18.02;43.60;99202.72;10327146;28;1973;-74
2023/12/30 18:52:19;;;;;;;;;;;;;;;18.01;43.62;99208.09;10327330;28;905;-74
2023/12/30 18:57:17;;;;;;;;;;;;;;;18.00;43.68;99199.34;10326992;28;818;-74
2023/12/30 19:02:13;;;;;;;;;;;;;;;18.03;43.65;99195.69;10325620;28;881;-74
2023/12/30 19:07:09;;;;;;;;;;;;;;;18.01;43.64;99182.56;10325983;28;1889;-74
2023/12/30 19:12:06;;;;;;;;;;;;;;;18.01;43.64;99179.09;10325859;28;948;-74
2023/12/30 19:17:01;;;;;;;;;;;;;;;18.05;43.52;99170.06;10325759;28;886;-74
2023/12/30 19:21:58;;;;;;;;;;;;;;;18.02;43.49;99154.41;10325714;28;958;-74
2023/12/30 19:26:54;;;;;;;;;;;;;;;18.02;43.46;99151.78;10325552;28;1951;-74
2023/12/30 19:31:50;;;;;;;;;;;;;;;18.03;43.61;99158.78;10326097;28;821;-74
2023/12/30 19:36:46;;;;;;;;;;;;;;;18.06;43.47;99161.25;10325434;28;1372;-74
2023/12/30 19:41:42;;;;;;;;;;;;;;;18.04;43.58;99153.41;10325325;28;972;-74
2023/12/30 19:46:38;;;;;;;;;;;;;;;18.07;43.66;99142.69;10325777;28;1975;-74
2023/12/30 19:51:34;;;;;;;;;;;;;;;18.04;43.47;99140.22;10325699;28;869;-74
2023/12/30 19:56:30;;;;;;;;;;;;;;;18.06;43.71;99146.25;10325741;28;1532;-74
2023/12/30 20:01:26;;;;;;;;;;;;;;;18.09;43.69;99137.34;10324396;28;1028;-74
2023/12/30 20:06:22;;;;;;;;;;;;;;;18.09;43.58;99132.06;10324804;28;1955;-74
2023/12/30 20:11:18;;;;;;;;;;;;;;;18.08;43.63;99133.00;10324734;28;924;-74
2023/12/30 20:16:14;;;;;;;;;;;;;;;18.08;43.83;99111.91;10324552;28;905;-74
2023/12/30 20:21:10;;;;;;;;;;;;;;;18.08;43.65;99106.63;10324510;28;854;-74
2023/12/30 20:26:06;;;;;;;;;;;;;;;18.07;43.60;99104.91;10324356;28;1894;-74
2023/12/30 20:31:04;;;;;;;;;;;;;;;18.07;43.83;99095.22;10324593;28;854;-74
2023/12/30 20:36:00;;;;;;;;;;;;;;;18.09;43.73;99097.78;10324024;28;1127;-74
2023/12/30 20:40:56;;;;;;;;;;;;;;;18.07;43.87;99091.72;10324132;28;897;-74
2023/12/30 20:45:52;;;;;;;;;;;;;;;18.02;43.89;99093.75;10324478;28;1905;-74
2023/12/30 20:50:48;;;;;;;;;;;;;;;18.01;43.88;99076.25;10331227;28;774;-74
2023/12/30 20:55:44;;;;;;;;;;;;;;;17.98;43.93;99066.72;10330569;28;870;-74
2023/12/30 21:00:40;;;;;;;;;;;;;;;17.98;43.96;99079.91;10330914;28;776;-74
2023/12/30 21:05:36;;;;;;;;;;;;;;;17.95;44.29;99073.00;10330666;28;1953;-74
2023/12/30 21:10:32;;;;;;;;;;;;;;;17.92;44.20;99065.28;10330511;28;964;-74
2023/12/30 21:15:28;;;;;;;;;;;;;;;17.93;44.04;99056.41;10331105;28;874;-74
2023/12/30 21:20:24;;;;;;;;;;;;;;;17.92;43.98;99049.47;10329676;28;1090;-74
2023/12/30 21:25:20;;;;;;;;;;;;;;;17.90;44.01;99053.13;10329910;28;1949;-74
2023/12/30 21:30:16;;;;;;;;;;;;;;;17.87;44.25;99051.50;10330452;28;853;-74
2023/12/30 21:35:12;;;;;;;;;;;;;;;17.89;44.21;99040.84;10329269;28;1013;-74
2023/12/30 21:40:09;;;;;;;;;;;;;;;17.88;44.12;99033.88;10330530;28;1097;-74
2023/12/30 21:45:05;;;;;;;;;;;;;;;17.87;44.22;99011.09;10329251;28;1918;-74
2023/12/30 21:50:03;;;;;;;;;;;;;;;17.84;44.10;99014.75;10329677;28;858;-74
2023/12/30 21:54:59;;;;;;;;;;;;;;;17.81;44.33;99003.50;10328796;28;869;-74
2023/12/30 21:59:55;;;;;;;;;;;;;;;17.77;44.41;98997.53;10329345;28;889;-74
2023/12/30 22:04:51;;;;;;;;;;;;;;;17.72;44.46;98995.16;10329095;28;930;-74
2023/12/30 22:09:47;;;;;;;;;;;;;;;17.70;44.55;98997.00;10328180;28;1964;-74
2023/12/30 22:14:43;;;;;;;;;;;;;;;17.68;44.37;98992.75;10328481;28;818;-74
2023/12/30 22:19:40;;;;;;;;;;;;;;;17.66;44.55;98992.84;10328383;28;845;-74
2023/12/30 22:24:36;;;;;;;;;;;;;;;17.64;44.49;98983.34;10328311;28;865;-74
2023/12/30 22:29:32;;;;;;;;;;;;;;;17.61;44.71;98976.44;10327378;28;1953;-74
2023/12/30 22:34:28;;;;;;;;;;;;;;;17.59;44.81;98962.50;10327840;28;781;-74
2023/12/30 22:39:24;;;;;;;;;;;;;;;17.58;44.41;98971.34;10327000;28;1932;-74
2023/12/30 22:44:20;;;;;;;;;;;;;;;17.55;44.83;98958.31;10326856;28;1608;-74
2023/12/30 22:49:16;;;;;;;;;;;;;;;17.58;44.67;98945.00;10326720;28;1964;-74
2023/12/30 22:54:12;;;;;;;;;;;;;;;17.55;44.90;98928.50;10325913;28;893;-74
2023/12/30 22:59:08;;;;;;;;;;;;;;;17.54;44.73;98925.00;10327438;28;873;-74
2023/12/30 23:04:04;;;;;;;;;;;;;;;17.50;44.83;98908.53;10326237;28;769;-74
2023/12/30 23:09:00;;;;;;;;;;;;;;;17.52;44.75;98897.91;10325741;28;1951;-74
2023/12/30 23:13:55;;;;;;;;;;;;;;;17.53;44.71;98894.34;10326294;28;857;-74
2023/12/30 23:18:51;;;;;;;;;;;;;;;17.51;44.80;98889.16;10325926;28;826;-74
2023/12/30 23:23:47;;;;;;;;;;;;;;;17.51;44.90;98869.84;10325137;28;1189;-75
2023/12/30 23:28:43;;;;;;;;;;;;;;;17.51;44.87;98883.03;10324975;28;1975;-74
2023/12/30 23:33:40;;;;;;;;;;;;;;;17.52;44.63;98872.38;10325502;28;943;-74
2023/12/30 23:38:36;;;;;;;;;;;;;;;17.51;44.82;98848.78;10325639;28;1150;-74
2023/12/30 23:43:32;;;;;;;;;;;;;;;17.48;44.88;98843.69;10325653;28;1534;-74
2023/12/30 23:48:28;;;;;;;;;;;;;;;17.47;44.88;98840.19;10325698;28;1963;-74
2023/12/30 23:53:23;;;;;;;;;;;;;;;17.48;44.82;98810.28;10325750;28;798;-74
2023/12/30 23:58:19;;;;;;;;;;;;;;;17.49;44.93;98796.16;10325645;28;937;-74
